Terminal Aerodrome Forecast
Issued by NWS

Home | Current Version | Previous Version | Text Only | Print | Product List | Glossary Off
Versions: 1 2 3 4 5 6 7 8 9 10 11 12 13 14 15 16 17 18 19 20

000
FTUS42 KMHX 301136
TAFPGV
TAF
KPGV 301136Z 3012/3112 20006KT P6SM BKN090
     FM301700 24012G20KT 3SM SHRA BKN015 OVC030
     FM302000 26008KT P6SM VCSH SCT015 BKN030
     FM310000 28004KT P6SM SKC
      AMD LTD TO CLD VIS AND WIND=

USA.gov is the U.S. government's official web portal to all federal, state and local government web resources and services.